Sorlandet — LDTY — position and weather

sailwx.info

Track history (hours):
 
Tides and Currents Weather Stations Pressure Air Temp Water Temp Dewpoint Dewpoint Depression Visibility Wind Speed Wind Dir Waves Ship Positions

Sorlandet (Norway)

Last reported at 2019-Jun-16 00:30 UTC. Time now 2019-Jun-16 00:33 UTC.
Position N 58°09' E 007°59'.

Length 64 m; draft 4.5 m.

Type: Sailing vessel. MMSI: 257165000.

Date/timePositionNaut miles runAvg speedWind from/ knotsBaromVisibWave heightAir tempDewpointWater temp
2019-Jun-16 00:30N 58°09' E 007°59'0 0.0
2019-Jun-15 23:59N 58°09' E 007°59'0 0.0
2019-Jun-15 23:29N 58°09' E 007°59'0 0.0
2019-Jun-15 22:56N 58°09' E 007°59'0 0.0
2019-Jun-15 22:30N 58°09' E 007°59'0 0.0
2019-Jun-15 21:59N 58°09' E 007°59'0 0.0
2019-Jun-15 21:30N 58°09' E 007°59'0 0.0
2019-Jun-15 20:59N 58°09' E 007°59'0 0.0
2019-Jun-15 20:29N 58°09' E 007°59'0 0.0
2019-Jun-15 19:59N 58°09' E 007°59'0 0.0
2019-Jun-15 19:29N 58°09' E 007°59'0 0.0
2019-Jun-15 18:56N 58°09' E 007°59'0 0.0
2019-Jun-15 18:29N 58°09' E 007°59'0 0.0
2019-Jun-15 18:00N 58°09' E 007°59'0 0.0
2019-Jun-15 17:29N 58°09' E 007°59'0 0.0
2019-Jun-15 17:00N 58°09' E 007°59'0 0.0
2019-Jun-15 16:26N 58°09' E 007°59'0 0.0
2019-Jun-15 16:00N 58°09' E 007°59'0 0.0
2019-Jun-15 15:29N 58°09' E 007°59'0 0.0
2019-Jun-15 15:00N 58°09' E 007°59'0 0.0
2019-Jun-15 14:29N 58°09' E 007°59'0 0.0
2019-Jun-15 13:59N 58°09' E 007°59'0 0.0
2019-Jun-15 13:29N 58°09' E 007°59'0 0.0
2019-Jun-15 12:59N 58°09' E 007°59'0 0.0
2019-Jun-15 12:29N 58°09' E 007°59'0 0.0
2019-Jun-15 11:59N 58°09' E 007°59'0 0.0
2019-Jun-15 11:29N 58°09' E 007°59'0 0.0
2019-Jun-15 10:59N 58°09' E 007°59'0 0.0
2019-Jun-15 10:29N 58°09' E 007°59'0 0.0
2019-Jun-15 09:59N 58°09' E 007°59'0 0.0
2019-Jun-15 09:29N 58°09' E 007°59'0 0.0
2019-Jun-15 08:59N 58°09' E 007°59'0 0.0
2019-Jun-15 08:29N 58°09' E 007°59'0 0.0
2019-Jun-15 07:59N 58°09' E 007°59'0 0.0
2019-Jun-15 07:29N 58°09' E 007°59'0 0.0
2019-Jun-15 06:59N 58°09' E 007°59'0 0.0
2019-Jun-15 06:29N 58°09' E 007°59'0 0.0
2019-Jun-15 05:59N 58°09' E 007°59'0 0.0
2019-Jun-15 05:29N 58°09' E 007°59'0 0.0
2019-Jun-15 04:59N 58°09' E 007°59'0 0.0
2019-Jun-15 04:29N 58°09' E 007°59'0 0.0
2019-Jun-15 03:59N 58°09' E 007°59'0 0.0
2019-Jun-15 03:29N 58°09' E 007°59'0 0.0
2019-Jun-15 02:59N 58°09' E 007°59'0 0.0
2019-Jun-15 02:29N 58°09' E 007°59'0 0.0
2019-Jun-15 01:59N 58°09' E 007°59'0 0.0
2019-Jun-15 01:29N 58°09' E 007°59'0 0.0
2019-Jun-15 00:59N 58°09' E 007°59'0 0.0
2019-Jun-15 00:29N 58°09' E 007°59'0 0.0
2019-Jun-14 23:59N 58°09' E 007°59'0 0.0
2019-Jun-14 23:29N 58°09' E 007°59'0 0.0
2019-Jun-14 22:59N 58°09' E 007°59'0 0.0
2019-Jun-14 22:29N 58°09' E 007°59'0 0.0
2019-Jun-14 21:59N 58°09' E 007°59'0 0.0
2019-Jun-14 21:29N 58°09' E 007°59'0 0.0
2019-Jun-14 20:59N 58°09' E 007°59'0 0.0
2019-Jun-14 20:29N 58°09' E 007°59'0 0.0
2019-Jun-14 20:00N 58°09' E 007°59'1 2.8
2019-Jun-14 19:30N 58°07' E 008°01'2 3.2
2019-Jun-14 19:00N 58°06' E 007°60'2 4.8
2019-Jun-14 18:31N 58°04' E 007°57'0 0.9
2019-Jun-14 18:00N 58°04' E 007°57'3 5.2
2019-Jun-14 17:30N 58°06' E 008°00'2 3.5
2019-Jun-14 17:00N 58°08' E 007°59'0 0.9
2019-Jun-14 16:29N 58°09' E 007°59'0 0.0
2019-Jun-14 15:59N 58°09' E 007°59'0 0.0
2019-Jun-14 15:29N 58°09' E 007°59'0 0.0
2019-Jun-14 14:59N 58°09' E 007°59'0 0.0
2019-Jun-14 14:29N 58°09' E 007°59'0 0.0
2019-Jun-14 13:59N 58°09' E 007°59'0 0.0
2019-Jun-14 13:29N 58°09' E 007°59'0 0.0
2019-Jun-14 12:59N 58°09' E 007°59'0 0.0
2019-Jun-14 12:29N 58°09' E 007°59'0 0.0
2019-Jun-14 11:59N 58°09' E 007°59'0 0.0
2019-Jun-14 11:29N 58°09' E 007°59'0 0.1
2019-Jun-14 11:00N 58°09' E 007°59'2 3.8
2019-Jun-14 10:30N 58°07' E 008°02'3 6.8
2019-Jun-14 10:00N 58°04' E 008°05'3 6.7
2019-Jun-14 09:30N 58°04' E 008°12'3 5.7
2019-Jun-14 09:00N 58°05' E 008°16'3 5.6
2019-Jun-14 08:30N 58°07' E 008°20'3 5.9
2019-Jun-14 08:00N 58°09' E 008°25'3 6.4
2019-Jun-14 07:30N 58°11' E 008°30'3 6.5
2019-Jun-14 07:00N 58°13' E 008°34'3 7.0
2019-Jun-14 06:30N 58°15' E 008°40'4 7.7
2019-Jun-14 06:00N 58°18' E 008°44'4 7.5
2019-Jun-14 05:30N 58°21' E 008°48'3 6.5
2019-Jun-14 05:00N 58°24' E 008°48'3 6.1
2019-Jun-14 04:30N 58°27' E 008°46'0 0.3
2019-Jun-14 04:00N 58°27' E 008°46'0 0.0
2019-Jun-14 03:30N 58°27' E 008°46'0 0.0
2019-Jun-14 03:00N 58°27' E 008°46'0 0.0
2019-Jun-14 02:30N 58°27' E 008°46'0 0.0
2019-Jun-14 02:00N 58°27' E 008°46'0 0.0
2019-Jun-14 01:30N 58°27' E 008°46'0 0.0
2019-Jun-14 01:00N 58°27' E 008°46'0 0.0
2019-Jun-14 00:30N 58°27' E 008°46'0 0.0
2019-Jun-14 00:00N 58°27' E 008°46'0 0.0
2019-Jun-13 23:30N 58°27' E 008°46'0 0.0
2019-Jun-13 23:00N 58°27' E 008°46'0 0.0
2019-Jun-13 22:30N 58°27' E 008°46'0 0.0
2019-Jun-13 22:00N 58°27' E 008°46'0 0.0
2019-Jun-13 21:30N 58°27' E 008°46'0 0.0
2019-Jun-13 21:00N 58°27' E 008°46'0 0.0
2019-Jun-13 20:30N 58°27' E 008°46'0 0.0
2019-Jun-13 20:00N 58°27' E 008°46'0 0.0
2019-Jun-13 19:30N 58°27' E 008°46'2 0.6
2019-Jun-13 16:51N 58°28' E 008°49'2 3.0
2019-Jun-13 16:21N 58°27' E 008°47'1 2.6
2019-Jun-13 16:00N 58°26' E 008°47'1 1.4
2019-Jun-13 15:30N 58°26' E 008°48'1 2.2
2019-Jun-13 15:01N 58°27' E 008°47'1 1.9
2019-Jun-13 14:30N 58°27' E 008°46'0 0.0
2019-Jun-13 14:00N 58°27' E 008°46'0 0.0
2019-Jun-13 13:30N 58°27' E 008°46'0 0.0
2019-Jun-13 13:00N 58°27' E 008°46'0 0.0
2019-Jun-13 12:30N 58°27' E 008°46'0 0.1
2019-Jun-13 12:00N 58°27' E 008°46'2 3.3
2019-Jun-13 11:30N 58°26' E 008°47'3 5.3
2019-Jun-13 11:00N 58°23' E 008°48'3 6.6
2019-Jun-13 10:30N 58°20' E 008°46'3 6.7
2019-Jun-13 10:00N 58°18' E 008°42'4 7.2
2019-Jun-13 09:31N 58°15' E 008°36'4 7.4
2019-Jun-13 09:01N 58°13' E 008°31'3 6.7
2019-Jun-13 08:31N 58°11' E 008°26'3 5.3
2019-Jun-13 08:00N 58°09' E 008°22'2 4.7
2019-Jun-13 07:30N 58°08' E 008°19'2 3.7
2019-Jun-13 07:00N 58°06' E 008°17'1 2.6
2019-Jun-13 06:31N 58°05' E 008°15'1 1.8
2019-Jun-13 06:01N 58°05' E 008°14'1 1.3
2019-Jun-13 05:31N 58°04' E 008°13'1 1.2
2019-Jun-13 05:00N 58°04' E 008°12'1 1.2
2019-Jun-13 04:31N 58°04' E 008°11'1 1.6
2019-Jun-13 04:00N 58°04' E 008°09'2 3.3
2019-Jun-13 03:31N 58°04' E 008°06'3 5.9
2019-Jun-13 03:00N 58°06' E 008°02'3 5.5
2019-Jun-13 02:30N 58°09' E 007°59'0 0.1
2019-Jun-13 01:58N 58°09' E 007°59'0 0.0
2019-Jun-13 01:28N 58°09' E 007°59'0 0.0
2019-Jun-13 00:58N 58°09' E 007°59'0 0.0
2019-Jun-13 00:28N 58°09' E 007°59'0 0.0
2019-Jun-12 23:58N 58°09' E 007°59'0 0.0
2019-Jun-12 23:25N 58°09' E 007°59'0 0.0
2019-Jun-12 22:58N 58°09' E 007°59'0 0.0
2019-Jun-12 22:28N 58°09' E 007°59'0 0.0
2019-Jun-12 21:58N 58°09' E 007°59'0 0.0
2019-Jun-12 21:28N 58°09' E 007°59'0 0.0
2019-Jun-12 21:00N 58°09' E 007°59'0 0.0
2019-Jun-12 20:28N 58°09' E 007°59'0 0.0
2019-Jun-12 19:55N 58°09' E 007°59'0 0.0
2019-Jun-12 19:28N 58°09' E 007°59'0 0.0
2019-Jun-12 19:01N 58°09' E 007°59'0 0.0
2019-Jun-12 18:28N 58°09' E 007°59'0 0.0
2019-Jun-12 17:58N 58°09' E 007°59'0 0.0
2019-Jun-12 17:28N 58°09' E 007°59'0 0.0
2019-Jun-12 16:59N 58°09' E 007°59'0 0.0
2019-Jun-12 16:28N 58°09' E 007°59'0 0.0
2019-Jun-12 15:58N 58°09' E 007°59'0 0.0
2019-Jun-12 15:31N 58°09' E 007°59'0 0.0
2019-Jun-12 15:01N 58°09' E 007°59'0 0.0
2019-Jun-12 14:25N 58°09' E 007°59'0 0.0
2019-Jun-12 13:58N 58°09' E 007°59'0 0.0
2019-Jun-12 13:27N 58°09' E 007°59'0 0.2
2019-Jun-12 13:00N 58°09' E 007°59'1 1.4
2019-Jun-12 12:30N 58°08' E 007°60'2 3.2
2019-Jun-12 12:00N 58°06' E 008°00'2 4.5
2019-Jun-12 11:30N 58°05' E 007°58'2 3.8
2019-Jun-12 11:00N 58°06' E 007°60'2 4.1
2019-Jun-12 10:30N 58°08' E 007°59'0 0.9
2019-Jun-12 09:59N 58°09' E 007°59'0 0.0
2019-Jun-12 09:30N 58°09' E 007°59'1 2.6
2019-Jun-12 09:00N 58°07' E 008°01'2 3.0
2019-Jun-12 08:30N 58°06' E 008°03'1 2.8
2019-Jun-12 08:00N 58°08' E 008°02'0 0.1
2019-Jun-12 07:30N 58°08' E 008°01'1 2.5
2019-Jun-12 07:01N 58°08' E 007°59'0 0.8
2019-Jun-12 06:29N 58°09' E 007°59'0 0.0
2019-Jun-12 05:59N 58°09' E 007°59'0 0.0
2019-Jun-12 05:29N 58°09' E 007°59'0 0.0
2019-Jun-12 04:59N 58°09' E 007°59'0 0.0
2019-Jun-12 04:29N 58°09' E 007°59'0 0.0
2019-Jun-12 03:59N 58°09' E 007°59'0 0.0
2019-Jun-12 03:29N 58°09' E 007°59'0 0.0
2019-Jun-12 02:59N 58°09' E 007°59'0 0.0
2019-Jun-12 01:59N 58°09' E 007°59'0 0.0
2019-Jun-12 01:29N 58°09' E 007°59'0 0.0
2019-Jun-12 00:59N 58°09' E 007°59'0 0.0
2019-Jun-12 00:29N 58°09' E 007°59'0 0.0
2019-Jun-11 23:59N 58°09' E 007°59'0 0.0
2019-Jun-11 23:29N 58°09' E 007°59'0 0.0
2019-Jun-11 22:59N 58°09' E 007°59'0 0.0
2019-Jun-11 22:29N 58°09' E 007°59'0 0.0
2019-Jun-11 21:59N 58°09' E 007°59'0 0.0
2019-Jun-11 21:29N 58°09' E 007°59'0 0.0
2019-Jun-11 20:59N 58°09' E 007°59'0 0.0
2019-Jun-11 20:29N 58°09' E 007°59'0 0.0
2019-Jun-11 19:59N 58°09' E 007°59'0 0.0
2019-Jun-11 19:29N 58°09' E 007°59'0 0.0
2019-Jun-11 18:59N 58°09' E 007°59'0 0.0
2019-Jun-11 18:29N 58°09' E 007°59'0 0.0
2019-Jun-11 17:59N 58°09' E 007°59'0 0.0
2019-Jun-11 17:29N 58°09' E 007°59'0 0.0
2019-Jun-11 16:59N 58°09' E 007°59'0 0.0
2019-Jun-11 16:29N 58°09' E 007°59'0 0.0
2019-Jun-11 15:59N 58°09' E 007°59'0 0.0
2019-Jun-11 15:29N 58°09' E 007°59'0 0.0
2019-Jun-11 14:59N 58°09' E 007°59'0 0.0
2019-Jun-11 14:29N 58°09' E 007°59'0 0.0
2019-Jun-11 13:59N 58°09' E 007°59'0 0.0
2019-Jun-11 13:29N 58°09' E 007°59'0 0.0
2019-Jun-11 13:00N 58°09' E 007°59'1 1.4
2019-Jun-11 12:30N 58°08' E 007°59'1 2.6
2019-Jun-11 12:01N 58°08' E 008°02'1 2.4
2019-Jun-11 11:30N 58°09' E 008°02'1 1.6
2019-Jun-11 11:00N 58°08' E 008°02'1 2.6
2019-Jun-11 10:30N 58°08' E 007°60'1 1.2
2019-Jun-11 09:59N 58°09' E 007°59'0 0.0
2019-Jun-11 09:29N 58°09' E 007°59'0 1.0
2019-Jun-11 09:00N 58°08' E 007°59'1 2.2
2019-Jun-11 08:30N 58°08' E 008°01'1 2.4
2019-Jun-11 08:00N 58°09' E 008°02'0 0.7
2019-Jun-11 07:30N 58°08' E 008°02'1 2.4
2019-Jun-11 07:00N 58°08' E 007°60'1 1.4
2019-Jun-11 06:29N 58°09' E 007°59'0 0.0
2019-Jun-11 05:59N 58°09' E 007°59'0 0.0
2019-Jun-11 05:29N 58°09' E 007°59'0 0.0
2019-Jun-11 04:59N 58°09' E 007°59'0 0.0
2019-Jun-11 04:29N 58°09' E 007°59'0 0.0
2019-Jun-11 03:59N 58°09' E 007°59'0 0.0
2019-Jun-11 03:29N 58°09' E 007°59'0 0.0
2019-Jun-11 02:59N 58°09' E 007°59'0 0.0
2019-Jun-11 02:29N 58°09' E 007°59'0 0.0
2019-Jun-11 01:59N 58°09' E 007°59'0 0.0
2019-Jun-11 01:29N 58°09' E 007°59'0 0.0
2019-Jun-11 00:59N 58°09' E 007°59'0 0.0
2019-Jun-11 00:29N 58°09' E 007°59'0 0.0
2019-Jun-10 23:59N 58°09' E 007°59'0 0.0
2019-Jun-10 23:29N 58°09' E 007°59'0 0.0
2019-Jun-10 22:59N 58°09' E 007°59'0 0.0
2019-Jun-10 22:29N 58°09' E 007°59'0 0.0
2019-Jun-10 21:59N 58°09' E 007°59'0 0.0
2019-Jun-10 21:29N 58°09' E 007°59'0 0.0
2019-Jun-10 20:59N 58°09' E 007°59'0 0.0
2019-Jun-10 20:30N 58°09' E 007°59'1 2.0
2019-Jun-10 20:01N 58°08' E 008°00'3 6.9
2019-Jun-10 19:31N 58°05' E 008°04'3 6.4
2019-Jun-10 19:00N 58°04' E 008°10'3 6.5
2019-Jun-10 18:31N 58°05' E 008°16'3 6.4
2019-Jun-10 18:01N 58°06' E 008°21'3 6.4
2019-Jun-10 17:31N 58°08' E 008°26'3 6.7
2019-Jun-10 17:00N 58°11' E 008°30'3 7.0
2019-Jun-10 16:30N 58°13' E 008°35'3 6.7
2019-Jun-10 16:00N 58°15' E 008°40'3 6.9
2019-Jun-10 15:31N 58°17' E 008°45'3 6.8
2019-Jun-10 15:01N 58°20' E 008°50'3 6.5
2019-Jun-10 14:31N 58°22' E 008°54'3 6.6
2019-Jun-10 14:00N 58°25' E 008°58'3 6.6
2019-Jun-10 13:30N 58°27' E 009°02'3 6.4
2019-Jun-10 13:00N 58°29' E 009°06'3 6.3
2019-Jun-10 12:30N 58°32' E 009°11'3 6.3
2019-Jun-10 12:01N 58°34' E 009°15'3 6.4
2019-Jun-10 11:31N 58°36' E 009°19'3 6.2
2019-Jun-10 11:00N 58°38' E 009°24'3 6.3
2019-Jun-10 10:30N 58°39' E 009°29'3 6.5
2019-Jun-10 10:00N 58°41' E 009°35'3 6.6
2019-Jun-10 09:29N 58°43' E 009°41'3 6.4
2019-Jun-10 09:00N 58°44' E 009°46'3 6.2
2019-Jun-10 08:30N 58°45' E 009°51'3 6.1
2019-Jun-10 08:00N 58°47' E 009°56'3 6.0
2019-Jun-10 07:30N 58°49' E 010°01'3 5.9
2019-Jun-10 07:01N 58°51' E 010°05'3 5.3
2019-Jun-10 06:31N 58°52' E 010°10'2 4.9
2019-Jun-10 06:01N 58°54' E 010°13'2 4.3
2019-Jun-10 05:31N 58°55' E 010°17'2 4.1
2019-Jun-10 05:01N 58°56' E 010°19'2 3.9
2019-Jun-10 04:31N 58°58' E 010°22'2 3.5
2019-Jun-10 04:01N 58°58' E 010°25'2 3.5
2019-Jun-10 03:31N 58°60' E 010°28'2 3.6
2019-Jun-10 03:01N 59°00' E 010°31'2 3.5
2019-Jun-10 02:31N 59°02' E 010°33'2 3.9
2019-Jun-10 02:01N 59°03' E 010°34'2 3.8
2019-Jun-10 01:31N 59°05' E 010°35'2 4.0
2019-Jun-10 01:01N 59°07' E 010°36'2 4.1
2019-Jun-10 00:31N 59°09' E 010°38'2 3.9
2019-Jun-10 00:00N 59°11' E 010°38'2 4.9
2019-Jun-09 23:31N 59°13' E 010°37'2 4.8
2019-Jun-09 23:01N 59°16' E 010°36'3 5.1
2019-Jun-09 22:31N 59°18' E 010°35'3 5.0
2019-Jun-09 22:00N 59°21' E 010°35'2 4.9
2019-Jun-09 21:30N 59°23' E 010°34'3 5.6
2019-Jun-09 21:01N 59°26' E 010°33'3 5.1
2019-Jun-09 20:31N 59°28' E 010°33'2 4.9
2019-Jun-09 20:01N 59°31' E 010°35'3 5.4
2019-Jun-09 19:31N 59°33' E 010°37'3 5.5
2019-Jun-09 19:00N 59°36' E 010°37'3 5.6
2019-Jun-09 18:31N 59°39' E 010°37'3 5.5
2019-Jun-09 18:00N 59°41' E 010°36'3 5.9
2019-Jun-09 17:30N 59°44' E 010°33'3 5.6
2019-Jun-09 17:00N 59°47' E 010°33'3 5.6
2019-Jun-09 16:30N 59°50' E 010°34'3 5.6
2019-Jun-09 16:00N 59°52' E 010°38'3 6.0
2019-Jun-09 15:30N 59°54' E 010°42'1 2.9
2019-Jun-09 15:00N 59°54' E 010°45'0 0.0
2019-Jun-09 14:30N 59°54' E 010°45'0 0.0
2019-Jun-09 14:00N 59°54' E 010°45'0 0.0
2019-Jun-09 13:30N 59°54' E 010°45'0 0.1
2019-Jun-09 13:00N 59°54' E 010°45'2 4.0
2019-Jun-09 12:30N 59°54' E 010°41'2 3.8
2019-Jun-09 12:00N 59°52' E 010°41'1 1.7
2019-Jun-09 11:29N 59°52' E 010°43'1 3.0
2019-Jun-09 11:00N 59°53' E 010°44'1 2.4
2019-Jun-09 10:30N 59°54' E 010°45'0 0.5
2019-Jun-09 09:58N 59°54' E 010°45'0 0.0
2019-Jun-09 09:28N 59°54' E 010°45'0 0.0
2019-Jun-09 08:58N 59°54' E 010°45'0 0.0
2019-Jun-09 08:28N 59°54' E 010°45'0 0.0
2019-Jun-09 07:58N 59°54' E 010°45'0 0.0
2019-Jun-09 07:28N 59°54' E 010°45'0 0.0
2019-Jun-09 06:58N 59°54' E 010°45'0 0.0
2019-Jun-09 06:28N 59°54' E 010°45'0 0.0
2019-Jun-09 05:58N 59°54' E 010°45'0 0.0
2019-Jun-09 05:28N 59°54' E 010°45'0 0.0
2019-Jun-09 04:58N 59°54' E 010°45'0 0.0
2019-Jun-09 03:58N 59°54' E 010°45'0 0.0
2019-Jun-09 03:28N 59°54' E 010°45'0 0.0
2019-Jun-09 02:58N 59°54' E 010°45'0 0.0
2019-Jun-09 02:28N 59°54' E 010°45'0 0.0
2019-Jun-09 01:58N 59°54' E 010°45'0 0.0
2019-Jun-09 01:28N 59°54' E 010°45'0 0.0
2019-Jun-09 00:58N 59°54' E 010°45'0 0.0
2019-Jun-09 00:28N 59°54' E 010°45'0 0.0
2019-Jun-08 23:58N 59°54' E 010°45'0 0.0
2019-Jun-08 23:28N 59°54' E 010°45'0 0.0
2019-Jun-08 22:58N 59°54' E 010°45'0 0.0
2019-Jun-08 22:28N 59°54' E 010°45'0 0.0
2019-Jun-08 21:58N 59°54' E 010°45'0 0.0
2019-Jun-08 21:28N 59°54' E 010°45'0 0.0
2019-Jun-08 20:58N 59°54' E 010°45'0 0.0
2019-Jun-08 20:28N 59°54' E 010°45'0 0.4
2019-Jun-08 20:00N 59°54' E 010°45'2 3.7
2019-Jun-08 19:30N 59°54' E 010°41'2 3.6
2019-Jun-08 19:00N 59°52' E 010°41'2 3.8
2019-Jun-08 18:30N 59°50' E 010°42'1 2.9
2019-Jun-08 18:00N 59°49' E 010°44'2 3.9
2019-Jun-08 17:30N 59°51' E 010°46'2 3.6
2019-Jun-08 17:00N 59°53' E 010°44'2 3.5
2019-Jun-08 16:30N 59°54' E 010°45'0 0.4
2019-Jun-08 15:58N 59°54' E 010°45'0 0.0
2019-Jun-08 15:28N 59°54' E 010°45'0 0.0
2019-Jun-08 14:58N 59°54' E 010°45'0 0.0
2019-Jun-08 14:28N 59°54' E 010°45'0 0.0
2019-Jun-08 13:58N 59°54' E 010°45'0 0.0
2019-Jun-08 13:28N 59°54' E 010°45'0 0.0
2019-Jun-08 12:58N 59°54' E 010°45'0 0.0
2019-Jun-08 12:28N 59°54' E 010°45'0 0.0
2019-Jun-08 11:58N 59°54' E 010°45'0 0.0
2019-Jun-08 11:28N 59°54' E 010°45'0 0.0
2019-Jun-08 10:58N 59°54' E 010°45'0 0.0
2019-Jun-08 10:28N 59°54' E 010°45'0 0.0
2019-Jun-08 09:58N 59°54' E 010°45'0 0.0
2019-Jun-08 09:28N 59°54' E 010°45'0 0.0
2019-Jun-08 08:58N 59°54' E 010°45'0 0.0
2019-Jun-08 08:28N 59°54' E 010°45'0 0.0
2019-Jun-08 07:58N 59°54' E 010°45'0 0.0
2019-Jun-08 07:28N 59°54' E 010°45'0 0.0
2019-Jun-08 06:58N 59°54' E 010°45'0 0.0
2019-Jun-08 06:28N 59°54' E 010°45'0 0.0
2019-Jun-08 05:58N 59°54' E 010°45'0 0.0
2019-Jun-08 05:28N 59°54' E 010°45'0 0.0
2019-Jun-08 04:58N 59°54' E 010°45'0 0.0
2019-Jun-08 04:28N 59°54' E 010°45'0 0.0
2019-Jun-08 03:58N 59°54' E 010°45'0 0.0
2019-Jun-08 03:28N 59°54' E 010°45'0 0.0
2019-Jun-08 02:58N 59°54' E 010°45'0 0.0
2019-Jun-08 02:28N 59°54' E 010°45'0 0.0
2019-Jun-08 01:58N 59°54' E 010°45'0 0.0
2019-Jun-08 01:28N 59°54' E 010°45'0 0.0
2019-Jun-08 00:58N 59°54' E 010°45'0 0.0
2019-Jun-08 00:28N 59°54' E 010°45'0 0.0
2019-Jun-07 23:58N 59°54' E 010°45'0 0.0
2019-Jun-07 23:28N 59°54' E 010°45'0 0.0
2019-Jun-07 22:58N 59°54' E 010°45'0 0.0
2019-Jun-07 22:28N 59°54' E 010°45'0 0.0
2019-Jun-07 21:58N 59°54' E 010°45'0 0.0
2019-Jun-07 21:28N 59°54' E 010°45'0 0.0
2019-Jun-07 20:58N 59°54' E 010°45'0 0.0
2019-Jun-07 20:29N 59°54' E 010°45'0 0.3
2019-Jun-07 20:00N 59°54' E 010°45'2 3.9
2019-Jun-07 19:30N 59°54' E 010°41'1 2.8
2019-Jun-07 18:59N 59°52' E 010°41'3 5.4
2019-Jun-07 18:30N 59°50' E 010°44'1 2.6
2019-Jun-07 18:00N 59°51' E 010°46'1 2.6
2019-Jun-07 17:29N 59°52' E 010°44'1 2.5
2019-Jun-07 17:00N 59°53' E 010°45'1 2.4
2019-Jun-07 16:28N 59°54' E 010°45'0 0.4
2019-Jun-07 15:58N 59°54' E 010°45'0 0.0
2019-Jun-07 15:28N 59°54' E 010°45'0 0.0
2019-Jun-07 15:00N 59°54' E 010°45'0 0.0
2019-Jun-07 14:30N 59°54' E 010°45'0 0.0
2019-Jun-07 14:00N 59°54' E 010°45'0 0.0
2019-Jun-07 13:30N 59°54' E 010°45'0 0.0
2019-Jun-07 13:00N 59°54' E 010°45'0 0.0
2019-Jun-07 12:30N 59°54' E 010°45'0 0.0
2019-Jun-07 12:00N 59°54' E 010°45'0 0.0
2019-Jun-07 11:30N 59°54' E 010°45'0 0.0
2019-Jun-07 11:00N 59°54' E 010°45'0 0.0
2019-Jun-07 10:30N 59°54' E 010°45'0 0.0
2019-Jun-07 10:00N 59°54' E 010°45'0 0.0
2019-Jun-07 09:30N 59°54' E 010°45'0 0.0
2019-Jun-07 08:58N 59°54' E 010°45'0 0.8
2019-Jun-07 08:28N 59°54' E 010°45'0 0.8
2019-Jun-07 07:58N 59°54' E 010°44'0 0.0
2019-Jun-07 07:28N 59°54' E 010°44'0 0.0
2019-Jun-07 06:58N 59°54' E 010°44'0 0.0
2019-Jun-07 06:28N 59°54' E 010°44'0 0.0
2019-Jun-07 05:58N 59°54' E 010°44'0 0.0
2019-Jun-07 05:28N 59°54' E 010°44'0 0.0
2019-Jun-07 04:58N 59°54' E 010°44'0 0.0
2019-Jun-07 04:28N 59°54' E 010°44'0 0.0
2019-Jun-07 03:55N 59°54' E 010°44'0 0.0
2019-Jun-07 03:28N 59°54' E 010°44'0 0.0
2019-Jun-07 02:58N 59°54' E 010°44'0 0.0
2019-Jun-07 02:28N 59°54' E 010°44'0 0.0
2019-Jun-07 01:58N 59°54' E 010°44'0 0.0
2019-Jun-07 01:28N 59°54' E 010°44'0 0.0
2019-Jun-07 00:58N 59°54' E 010°44'0 0.0
2019-Jun-07 00:28N 59°54' E 010°44'0 0.0
2019-Jun-06 23:58N 59°54' E 010°44'0 0.0
2019-Jun-06 23:28N 59°54' E 010°44'0 0.0
2019-Jun-06 22:55N 59°54' E 010°44'0 0.0
2019-Jun-06 22:28N 59°54' E 010°44'0 0.0
2019-Jun-06 21:58N 59°54' E 010°44'0 0.0
2019-Jun-06 21:25N 59°54' E 010°44'0 0.0
2019-Jun-06 20:58N 59°54' E 010°44'0 0.0
2019-Jun-06 20:25N 59°54' E 010°44'0 0.0
2019-Jun-06 19:58N 59°54' E 010°44'0 0.0
2019-Jun-06 19:28N 59°54' E 010°44'0 0.0
2019-Jun-06 18:58N 59°54' E 010°44'0 0.0
2019-Jun-06 18:28N 59°54' E 010°44'0 0.0
2019-Jun-06 17:58N 59°54' E 010°44'0 0.0
2019-Jun-06 17:25N 59°54' E 010°44'0 0.0
2019-Jun-06 16:55N 59°54' E 010°44'0 0.0
2019-Jun-06 16:28N 59°54' E 010°44'0 0.0
2019-Jun-06 15:58N 59°54' E 010°44'0 0.0
2019-Jun-06 15:28N 59°54' E 010°44'0 0.0
2019-Jun-06 14:58N 59°54' E 010°44'0 0.0
2019-Jun-06 14:28N 59°54' E 010°44'0 0.0
2019-Jun-06 13:58N 59°54' E 010°44'0 0.0
2019-Jun-06 13:28N 59°54' E 010°44'0 0.0
2019-Jun-06 12:58N 59°54' E 010°44'0 0.0
2019-Jun-06 12:28N 59°54' E 010°44'0 0.0
2019-Jun-06 11:58N 59°54' E 010°44'0 0.0
2019-Jun-06 11:28N 59°54' E 010°44'0 0.0
2019-Jun-06 10:58N 59°54' E 010°44'0 0.0
2019-Jun-06 10:28N 59°54' E 010°44'0 0.0
2019-Jun-06 09:58N 59°54' E 010°44'0 0.0
2019-Jun-06 09:28N 59°54' E 010°44'0 0.0
2019-Jun-06 08:58N 59°54' E 010°44'0 0.0
2019-Jun-06 08:28N 59°54' E 010°44'0 0.0
2019-Jun-06 07:58N 59°54' E 010°44'0 0.0
2019-Jun-06 07:30N 59°54' E 010°44'0 0.0
2019-Jun-06 07:00N 59°54' E 010°44'1 1.8
2019-Jun-06 06:30N 59°54' E 010°42'3 5.3
2019-Jun-06 06:00N 59°52' E 010°39'4 7.4
2019-Jun-06 05:30N 59°49' E 010°35'4 7.2
2019-Jun-06 05:00N 59°45' E 010°34'3 7.1
2019-Jun-06 04:30N 59°42' E 010°36'3 6.8
2019-Jun-06 04:00N 59°39' E 010°37'3 6.5
2019-Jun-06 03:30N 59°35' E 010°38'3 6.6
2019-Jun-06 03:00N 59°32' E 010°37'3 6.6
2019-Jun-06 02:30N 59°29' E 010°35'3 6.4
2019-Jun-06 02:00N 59°26' E 010°34'3 5.8
2019-Jun-06 01:30N 59°23' E 010°35'3 6.2
2019-Jun-06 01:00N 59°20' E 010°36'3 5.8
2019-Jun-06 00:30N 59°17' E 010°37'  
Track history (hours):
 
Tides and Currents Weather Stations Pressure Air Temp Water Temp Dewpoint Dewpoint Depression Visibility Wind Speed Wind Dir Waves Ship Positions

Sorlandet (Norway)

Last reported at 2019-Jun-16 00:30 UTC. Time now 2019-Jun-16 00:33 UTC.
Position N 58°09' E 007°59'.

Length 64 m; draft 4.5 m.

Type: Sailing vessel. MMSI: 257165000.

Date/timePositionNaut miles runAvg speedWind from/ knotsBaromVisibWave heightAir tempDewpointWater temp
2019-Jun-16 00:30N 58°09' E 007°59'0 0.0
2019-Jun-15 23:59N 58°09' E 007°59'0 0.0
2019-Jun-15 23:29N 58°09' E 007°59'0 0.0
2019-Jun-15 22:56N 58°09' E 007°59'0 0.0
2019-Jun-15 22:30N 58°09' E 007°59'0 0.0
2019-Jun-15 21:59N 58°09' E 007°59'0 0.0
2019-Jun-15 21:30N 58°09' E 007°59'0 0.0
2019-Jun-15 20:59N 58°09' E 007°59'0 0.0
2019-Jun-15 20:29N 58°09' E 007°59'0 0.0
2019-Jun-15 19:59N 58°09' E 007°59'0 0.0
2019-Jun-15 19:29N 58°09' E 007°59'0 0.0
2019-Jun-15 18:56N 58°09' E 007°59'0 0.0
2019-Jun-15 18:29N 58°09' E 007°59'0 0.0
2019-Jun-15 18:00N 58°09' E 007°59'0 0.0
2019-Jun-15 17:29N 58°09' E 007°59'0 0.0
2019-Jun-15 17:00N 58°09' E 007°59'0 0.0
2019-Jun-15 16:26N 58°09' E 007°59'0 0.0
2019-Jun-15 16:00N 58°09' E 007°59'0 0.0
2019-Jun-15 15:29N 58°09' E 007°59'0 0.0
2019-Jun-15 15:00N 58°09' E 007°59'0 0.0
2019-Jun-15 14:29N 58°09' E 007°59'0 0.0
2019-Jun-15 13:59N 58°09' E 007°59'0 0.0
2019-Jun-15 13:29N 58°09' E 007°59'0 0.0
2019-Jun-15 12:59N 58°09' E 007°59'0 0.0
2019-Jun-15 12:29N 58°09' E 007°59'0 0.0
2019-Jun-15 11:59N 58°09' E 007°59'0 0.0
2019-Jun-15 11:29N 58°09' E 007°59'0 0.0
2019-Jun-15 10:59N 58°09' E 007°59'0 0.0
2019-Jun-15 10:29N 58°09' E 007°59'0 0.0
2019-Jun-15 09:59N 58°09' E 007°59'0 0.0
2019-Jun-15 09:29N 58°09' E 007°59'0 0.0
2019-Jun-15 08:59N 58°09' E 007°59'0 0.0
2019-Jun-15 08:29N 58°09' E 007°59'0 0.0
2019-Jun-15 07:59N 58°09' E 007°59'0 0.0
2019-Jun-15 07:29N 58°09' E 007°59'0 0.0
2019-Jun-15 06:59N 58°09' E 007°59'0 0.0
2019-Jun-15 06:29N 58°09' E 007°59'0 0.0
2019-Jun-15 05:59N 58°09' E 007°59'0 0.0
2019-Jun-15 05:29N 58°09' E 007°59'0 0.0
2019-Jun-15 04:59N 58°09' E 007°59'0 0.0
2019-Jun-15 04:29N 58°09' E 007°59'0 0.0
2019-Jun-15 03:59N 58°09' E 007°59'0 0.0
2019-Jun-15 03:29N 58°09' E 007°59'0 0.0
2019-Jun-15 02:59N 58°09' E 007°59'0 0.0
2019-Jun-15 02:29N 58°09' E 007°59'0 0.0
2019-Jun-15 01:59N 58°09' E 007°59'0 0.0
2019-Jun-15 01:29N 58°09' E 007°59'0 0.0
2019-Jun-15 00:59N 58°09' E 007°59'0 0.0
2019-Jun-15 00:29N 58°09' E 007°59'0 0.0
2019-Jun-14 23:59N 58°09' E 007°59'0 0.0
2019-Jun-14 23:29N 58°09' E 007°59'0 0.0
2019-Jun-14 22:59N 58°09' E 007°59'0 0.0
2019-Jun-14 22:29N 58°09' E 007°59'0 0.0
2019-Jun-14 21:59N 58°09' E 007°59'0 0.0
2019-Jun-14 21:29N 58°09' E 007°59'0 0.0
2019-Jun-14 20:59N 58°09' E 007°59'0 0.0
2019-Jun-14 20:29N 58°09' E 007°59'0 0.0
2019-Jun-14 20:00N 58°09' E 007°59'1 2.8
2019-Jun-14 19:30N 58°07' E 008°01'2 3.2
2019-Jun-14 19:00N 58°06' E 007°60'2 4.8
2019-Jun-14 18:31N 58°04' E 007°57'0 0.9
2019-Jun-14 18:00N 58°04' E 007°57'3 5.2
2019-Jun-14 17:30N 58°06' E 008°00'2 3.5
2019-Jun-14 17:00N 58°08' E 007°59'0 0.9
2019-Jun-14 16:29N 58°09' E 007°59'0 0.0
2019-Jun-14 15:59N 58°09' E 007°59'0 0.0
2019-Jun-14 15:29N 58°09' E 007°59'0 0.0
2019-Jun-14 14:59N 58°09' E 007°59'0 0.0
2019-Jun-14 14:29N 58°09' E 007°59'0 0.0
2019-Jun-14 13:59N 58°09' E 007°59'0 0.0
2019-Jun-14 13:29N 58°09' E 007°59'0 0.0
2019-Jun-14 12:59N 58°09' E 007°59'0 0.0
2019-Jun-14 12:29N 58°09' E 007°59'0 0.0
2019-Jun-14 11:59N 58°09' E 007°59'0 0.0
2019-Jun-14 11:29N 58°09' E 007°59'0 0.1
2019-Jun-14 11:00N 58°09' E 007°59'2 3.8
2019-Jun-14 10:30N 58°07' E 008°02'3 6.8
2019-Jun-14 10:00N 58°04' E 008°05'3 6.7
2019-Jun-14 09:30N 58°04' E 008°12'3 5.7
2019-Jun-14 09:00N 58°05' E 008°16'3 5.6
2019-Jun-14 08:30N 58°07' E 008°20'3 5.9
2019-Jun-14 08:00N 58°09' E 008°25'3 6.4
2019-Jun-14 07:30N 58°11' E 008°30'3 6.5
2019-Jun-14 07:00N 58°13' E 008°34'3 7.0
2019-Jun-14 06:30N 58°15' E 008°40'4 7.7
2019-Jun-14 06:00N 58°18' E 008°44'4 7.5
2019-Jun-14 05:30N 58°21' E 008°48'3 6.5
2019-Jun-14 05:00N 58°24' E 008°48'3 6.1
2019-Jun-14 04:30N 58°27' E 008°46'0 0.3
2019-Jun-14 04:00N 58°27' E 008°46'0 0.0
2019-Jun-14 03:30N 58°27' E 008°46'0 0.0
2019-Jun-14 03:00N 58°27' E 008°46'0 0.0
2019-Jun-14 02:30N 58°27' E 008°46'0 0.0
2019-Jun-14 02:00N 58°27' E 008°46'0 0.0
2019-Jun-14 01:30N 58°27' E 008°46'0 0.0
2019-Jun-14 01:00N 58°27' E 008°46'0 0.0
2019-Jun-14 00:30N 58°27' E 008°46'0 0.0
2019-Jun-14 00:00N 58°27' E 008°46'0 0.0
2019-Jun-13 23:30N 58°27' E 008°46'0 0.0
2019-Jun-13 23:00N 58°27' E 008°46'0 0.0
2019-Jun-13 22:30N 58°27' E 008°46'0 0.0
2019-Jun-13 22:00N 58°27' E 008°46'0 0.0
2019-Jun-13 21:30N 58°27' E 008°46'0 0.0
2019-Jun-13 21:00N 58°27' E 008°46'0 0.0
2019-Jun-13 20:30N 58°27' E 008°46'0 0.0
2019-Jun-13 20:00N 58°27' E 008°46'0 0.0
2019-Jun-13 19:30N 58°27' E 008°46'2 0.6
2019-Jun-13 16:51N 58°28' E 008°49'2 3.0
2019-Jun-13 16:21N 58°27' E 008°47'1 2.6
2019-Jun-13 16:00N 58°26' E 008°47'1 1.4
2019-Jun-13 15:30N 58°26' E 008°48'1 2.2
2019-Jun-13 15:01N 58°27' E 008°47'1 1.9
2019-Jun-13 14:30N 58°27' E 008°46'0 0.0
2019-Jun-13 14:00N 58°27' E 008°46'0 0.0
2019-Jun-13 13:30N 58°27' E 008°46'0 0.0
2019-Jun-13 13:00N 58°27' E 008°46'0 0.0
2019-Jun-13 12:30N 58°27' E 008°46'0 0.1
2019-Jun-13 12:00N 58°27' E 008°46'2 3.3
2019-Jun-13 11:30N 58°26' E 008°47'3 5.3
2019-Jun-13 11:00N 58°23' E 008°48'3 6.6
2019-Jun-13 10:30N 58°20' E 008°46'3 6.7
2019-Jun-13 10:00N 58°18' E 008°42'4 7.2
2019-Jun-13 09:31N 58°15' E 008°36'4 7.4
2019-Jun-13 09:01N 58°13' E 008°31'3 6.7
2019-Jun-13 08:31N 58°11' E 008°26'3 5.3
2019-Jun-13 08:00N 58°09' E 008°22'2 4.7
2019-Jun-13 07:30N 58°08' E 008°19'2 3.7
2019-Jun-13 07:00N 58°06' E 008°17'1 2.6
2019-Jun-13 06:31N 58°05' E 008°15'1 1.8
2019-Jun-13 06:01N 58°05' E 008°14'1 1.3
2019-Jun-13 05:31N 58°04' E 008°13'1 1.2
2019-Jun-13 05:00N 58°04' E 008°12'1 1.2
2019-Jun-13 04:31N 58°04' E 008°11'1 1.6
2019-Jun-13 04:00N 58°04' E 008°09'2 3.3
2019-Jun-13 03:31N 58°04' E 008°06'3 5.9
2019-Jun-13 03:00N 58°06' E 008°02'3 5.5
2019-Jun-13 02:30N 58°09' E 007°59'0 0.1
2019-Jun-13 01:58N 58°09' E 007°59'0 0.0
2019-Jun-13 01:28N 58°09' E 007°59'0 0.0
2019-Jun-13 00:58N 58°09' E 007°59'0 0.0
2019-Jun-13 00:28N 58°09' E 007°59'0 0.0
2019-Jun-12 23:58N 58°09' E 007°59'0 0.0
2019-Jun-12 23:25N 58°09' E 007°59'0 0.0
2019-Jun-12 22:58N 58°09' E 007°59'0 0.0
2019-Jun-12 22:28N 58°09' E 007°59'0 0.0
2019-Jun-12 21:58N 58°09' E 007°59'0 0.0
2019-Jun-12 21:28N 58°09' E 007°59'0 0.0
2019-Jun-12 21:00N 58°09' E 007°59'0 0.0
2019-Jun-12 20:28N 58°09' E 007°59'0 0.0
2019-Jun-12 19:55N 58°09' E 007°59'0 0.0
2019-Jun-12 19:28N 58°09' E 007°59'0 0.0
2019-Jun-12 19:01N 58°09' E 007°59'0 0.0
2019-Jun-12 18:28N 58°09' E 007°59'0 0.0
2019-Jun-12 17:58N 58°09' E 007°59'0 0.0
2019-Jun-12 17:28N 58°09' E 007°59'0 0.0
2019-Jun-12 16:59N 58°09' E 007°59'0 0.0
2019-Jun-12 16:28N 58°09' E 007°59'0 0.0
2019-Jun-12 15:58N 58°09' E 007°59'0 0.0
2019-Jun-12 15:31N 58°09' E 007°59'0 0.0
2019-Jun-12 15:01N 58°09' E 007°59'0 0.0
2019-Jun-12 14:25N 58°09' E 007°59'0 0.0
2019-Jun-12 13:58N 58°09' E 007°59'0 0.0
2019-Jun-12 13:27N 58°09' E 007°59'0 0.2
2019-Jun-12 13:00N 58°09' E 007°59'1 1.4
2019-Jun-12 12:30N 58°08' E 007°60'2 3.2
2019-Jun-12 12:00N 58°06' E 008°00'2 4.5
2019-Jun-12 11:30N 58°05' E 007°58'2 3.8
2019-Jun-12 11:00N 58°06' E 007°60'2 4.1
2019-Jun-12 10:30N 58°08' E 007°59'0 0.9
2019-Jun-12 09:59N 58°09' E 007°59'0 0.0
2019-Jun-12 09:30N 58°09' E 007°59'1 2.6
2019-Jun-12 09:00N 58°07' E 008°01'2 3.0
2019-Jun-12 08:30N 58°06' E 008°03'1 2.8
2019-Jun-12 08:00N 58°08' E 008°02'0 0.1
2019-Jun-12 07:30N 58°08' E 008°01'1 2.5
2019-Jun-12 07:01N 58°08' E 007°59'0 0.8
2019-Jun-12 06:29N 58°09' E 007°59'0 0.0
2019-Jun-12 05:59N 58°09' E 007°59'0 0.0
2019-Jun-12 05:29N 58°09' E 007°59'0 0.0
2019-Jun-12 04:59N 58°09' E 007°59'0 0.0
2019-Jun-12 04:29N 58°09' E 007°59'0 0.0
2019-Jun-12 03:59N 58°09' E 007°59'0 0.0
2019-Jun-12 03:29N 58°09' E 007°59'0 0.0
2019-Jun-12 02:59N 58°09' E 007°59'0 0.0
2019-Jun-12 01:59N 58°09' E 007°59'0 0.0
2019-Jun-12 01:29N 58°09' E 007°59'0 0.0
2019-Jun-12 00:59N 58°09' E 007°59'0 0.0
2019-Jun-12 00:29N 58°09' E 007°59'0 0.0
2019-Jun-11 23:59N 58°09' E 007°59'0 0.0
2019-Jun-11 23:29N 58°09' E 007°59'0 0.0
2019-Jun-11 22:59N 58°09' E 007°59'0 0.0
2019-Jun-11 22:29N 58°09' E 007°59'0 0.0
2019-Jun-11 21:59N 58°09' E 007°59'0 0.0
2019-Jun-11 21:29N 58°09' E 007°59'0 0.0
2019-Jun-11 20:59N 58°09' E 007°59'0 0.0
2019-Jun-11 20:29N 58°09' E 007°59'0 0.0
2019-Jun-11 19:59N 58°09' E 007°59'0 0.0
2019-Jun-11 19:29N 58°09' E 007°59'0 0.0
2019-Jun-11 18:59N 58°09' E 007°59'0 0.0
2019-Jun-11 18:29N 58°09' E 007°59'0 0.0
2019-Jun-11 17:59N 58°09' E 007°59'0 0.0
2019-Jun-11 17:29N 58°09' E 007°59'0 0.0
2019-Jun-11 16:59N 58°09' E 007°59'0 0.0
2019-Jun-11 16:29N 58°09' E 007°59'0 0.0
2019-Jun-11 15:59N 58°09' E 007°59'0 0.0
2019-Jun-11 15:29N 58°09' E 007°59'0 0.0
2019-Jun-11 14:59N 58°09' E 007°59'0 0.0
2019-Jun-11 14:29N 58°09' E 007°59'0 0.0
2019-Jun-11 13:59N 58°09' E 007°59'0 0.0
2019-Jun-11 13:29N 58°09' E 007°59'0 0.0
2019-Jun-11 13:00N 58°09' E 007°59'1 1.4
2019-Jun-11 12:30N 58°08' E 007°59'1 2.6
2019-Jun-11 12:01N 58°08' E 008°02'1 2.4
2019-Jun-11 11:30N 58°09' E 008°02'1 1.6
2019-Jun-11 11:00N 58°08' E 008°02'1 2.6
2019-Jun-11 10:30N 58°08' E 007°60'1 1.2
2019-Jun-11 09:59N 58°09' E 007°59'0 0.0
2019-Jun-11 09:29N 58°09' E 007°59'0 1.0
2019-Jun-11 09:00N 58°08' E 007°59'1 2.2
2019-Jun-11 08:30N 58°08' E 008°01'1 2.4
2019-Jun-11 08:00N 58°09' E 008°02'0 0.7
2019-Jun-11 07:30N 58°08' E 008°02'1 2.4
2019-Jun-11 07:00N 58°08' E 007°60'1 1.4
2019-Jun-11 06:29N 58°09' E 007°59'0 0.0
2019-Jun-11 05:59N 58°09' E 007°59'0 0.0
2019-Jun-11 05:29N 58°09' E 007°59'0 0.0
2019-Jun-11 04:59N 58°09' E 007°59'0 0.0
2019-Jun-11 04:29N 58°09' E 007°59'0 0.0
2019-Jun-11 03:59N 58°09' E 007°59'0 0.0
2019-Jun-11 03:29N 58°09' E 007°59'0 0.0
2019-Jun-11 02:59N 58°09' E 007°59'0 0.0
2019-Jun-11 02:29N 58°09' E 007°59'0 0.0
2019-Jun-11 01:59N 58°09' E 007°59'0 0.0
2019-Jun-11 01:29N 58°09' E 007°59'0 0.0
2019-Jun-11 00:59N 58°09' E 007°59'0 0.0
2019-Jun-11 00:29N 58°09' E 007°59'0 0.0
2019-Jun-10 23:59N 58°09' E 007°59'0 0.0
2019-Jun-10 23:29N 58°09' E 007°59'0 0.0
2019-Jun-10 22:59N 58°09' E 007°59'0 0.0
2019-Jun-10 22:29N 58°09' E 007°59'0 0.0
2019-Jun-10 21:59N 58°09' E 007°59'0 0.0
2019-Jun-10 21:29N 58°09' E 007°59'0 0.0
2019-Jun-10 20:59N 58°09' E 007°59'0 0.0
2019-Jun-10 20:30N 58°09' E 007°59'1 2.0
2019-Jun-10 20:01N 58°08' E 008°00'3 6.9
2019-Jun-10 19:31N 58°05' E 008°04'3 6.4
2019-Jun-10 19:00N 58°04' E 008°10'3 6.5
2019-Jun-10 18:31N 58°05' E 008°16'3 6.4
2019-Jun-10 18:01N 58°06' E 008°21'3 6.4
2019-Jun-10 17:31N 58°08' E 008°26'3 6.7
2019-Jun-10 17:00N 58°11' E 008°30'3 7.0
2019-Jun-10 16:30N 58°13' E 008°35'3 6.7
2019-Jun-10 16:00N 58°15' E 008°40'3 6.9
2019-Jun-10 15:31N 58°17' E 008°45'3 6.8
2019-Jun-10 15:01N 58°20' E 008°50'3 6.5
2019-Jun-10 14:31N 58°22' E 008°54'3 6.6
2019-Jun-10 14:00N 58°25' E 008°58'3 6.6
2019-Jun-10 13:30N 58°27' E 009°02'3 6.4
2019-Jun-10 13:00N 58°29' E 009°06'3 6.3
2019-Jun-10 12:30N 58°32' E 009°11'3 6.3
2019-Jun-10 12:01N 58°34' E 009°15'3 6.4
2019-Jun-10 11:31N 58°36' E 009°19'3 6.2
2019-Jun-10 11:00N 58°38' E 009°24'3 6.3
2019-Jun-10 10:30N 58°39' E 009°29'3 6.5
2019-Jun-10 10:00N 58°41' E 009°35'3 6.6
2019-Jun-10 09:29N 58°43' E 009°41'3 6.4
2019-Jun-10 09:00N 58°44' E 009°46'3 6.2
2019-Jun-10 08:30N 58°45' E 009°51'3 6.1
2019-Jun-10 08:00N 58°47' E 009°56'3 6.0
2019-Jun-10 07:30N 58°49' E 010°01'3 5.9
2019-Jun-10 07:01N 58°51' E 010°05'3 5.3
2019-Jun-10 06:31N 58°52' E 010°10'2 4.9
2019-Jun-10 06:01N 58°54' E 010°13'2 4.3
2019-Jun-10 05:31N 58°55' E 010°17'2 4.1
2019-Jun-10 05:01N 58°56' E 010°19'2 3.9
2019-Jun-10 04:31N 58°58' E 010°22'2 3.5
2019-Jun-10 04:01N 58°58' E 010°25'2 3.5
2019-Jun-10 03:31N 58°60' E 010°28'2 3.6
2019-Jun-10 03:01N 59°00' E 010°31'2 3.5
2019-Jun-10 02:31N 59°02' E 010°33'2 3.9
2019-Jun-10 02:01N 59°03' E 010°34'2 3.8
2019-Jun-10 01:31N 59°05' E 010°35'2 4.0
2019-Jun-10 01:01N 59°07' E 010°36'2 4.1
2019-Jun-10 00:31N 59°09' E 010°38'2 3.9
2019-Jun-10 00:00N 59°11' E 010°38'2 4.9
2019-Jun-09 23:31N 59°13' E 010°37'2 4.8
2019-Jun-09 23:01N 59°16' E 010°36'3 5.1
2019-Jun-09 22:31N 59°18' E 010°35'3 5.0
2019-Jun-09 22:00N 59°21' E 010°35'2 4.9
2019-Jun-09 21:30N 59°23' E 010°34'3 5.6
2019-Jun-09 21:01N 59°26' E 010°33'3 5.1
2019-Jun-09 20:31N 59°28' E 010°33'2 4.9
2019-Jun-09 20:01N 59°31' E 010°35'3 5.4
2019-Jun-09 19:31N 59°33' E 010°37'3 5.5
2019-Jun-09 19:00N 59°36' E 010°37'3 5.6
2019-Jun-09 18:31N 59°39' E 010°37'3 5.5
2019-Jun-09 18:00N 59°41' E 010°36'3 5.9
2019-Jun-09 17:30N 59°44' E 010°33'3 5.6
2019-Jun-09 17:00N 59°47' E 010°33'3 5.6
2019-Jun-09 16:30N 59°50' E 010°34'3 5.6
2019-Jun-09 16:00N 59°52' E 010°38'3 6.0
2019-Jun-09 15:30N 59°54' E 010°42'1 2.9
2019-Jun-09 15:00N 59°54' E 010°45'0 0.0
2019-Jun-09 14:30N 59°54' E 010°45'0 0.0
2019-Jun-09 14:00N 59°54' E 010°45'0 0.0
2019-Jun-09 13:30N 59°54' E 010°45'0 0.1
2019-Jun-09 13:00N 59°54' E 010°45'2 4.0
2019-Jun-09 12:30N 59°54' E 010°41'2 3.8
2019-Jun-09 12:00N 59°52' E 010°41'1 1.7
2019-Jun-09 11:29N 59°52' E 010°43'1 3.0
2019-Jun-09 11:00N 59°53' E 010°44'1 2.4
2019-Jun-09 10:30N 59°54' E 010°45'0 0.5
2019-Jun-09 09:58N 59°54' E 010°45'0 0.0
2019-Jun-09 09:28N 59°54' E 010°45'0 0.0
2019-Jun-09 08:58N 59°54' E 010°45'0 0.0
2019-Jun-09 08:28N 59°54' E 010°45'0 0.0
2019-Jun-09 07:58N 59°54' E 010°45'0 0.0
2019-Jun-09 07:28N 59°54' E 010°45'0 0.0
2019-Jun-09 06:58N 59°54' E 010°45'0 0.0
2019-Jun-09 06:28N 59°54' E 010°45'0 0.0
2019-Jun-09 05:58N 59°54' E 010°45'0 0.0
2019-Jun-09 05:28N 59°54' E 010°45'0 0.0
2019-Jun-09 04:58N 59°54' E 010°45'0 0.0
2019-Jun-09 03:58N 59°54' E 010°45'0 0.0
2019-Jun-09 03:28N 59°54' E 010°45'0 0.0
2019-Jun-09 02:58N 59°54' E 010°45'0 0.0
2019-Jun-09 02:28N 59°54' E 010°45'0 0.0
2019-Jun-09 01:58N 59°54' E 010°45'0 0.0
2019-Jun-09 01:28N 59°54' E 010°45'0 0.0
2019-Jun-09 00:58N 59°54' E 010°45'0 0.0
2019-Jun-09 00:28N 59°54' E 010°45'0 0.0
2019-Jun-08 23:58N 59°54' E 010°45'0 0.0
2019-Jun-08 23:28N 59°54' E 010°45'0 0.0
2019-Jun-08 22:58N 59°54' E 010°45'0 0.0
2019-Jun-08 22:28N 59°54' E 010°45'0 0.0
2019-Jun-08 21:58N 59°54' E 010°45'0 0.0
2019-Jun-08 21:28N 59°54' E 010°45'0 0.0
2019-Jun-08 20:58N 59°54' E 010°45'0 0.0
2019-Jun-08 20:28N 59°54' E 010°45'0 0.4
2019-Jun-08 20:00N 59°54' E 010°45'2 3.7
2019-Jun-08 19:30N 59°54' E 010°41'2 3.6
2019-Jun-08 19:00N 59°52' E 010°41'2 3.8
2019-Jun-08 18:30N 59°50' E 010°42'1 2.9
2019-Jun-08 18:00N 59°49' E 010°44'2 3.9
2019-Jun-08 17:30N 59°51' E 010°46'2 3.6
2019-Jun-08 17:00N 59°53' E 010°44'2 3.5
2019-Jun-08 16:30N 59°54' E 010°45'0 0.4
2019-Jun-08 15:58N 59°54' E 010°45'0 0.0
2019-Jun-08 15:28N 59°54' E 010°45'0 0.0
2019-Jun-08 14:58N 59°54' E 010°45'0 0.0
2019-Jun-08 14:28N 59°54' E 010°45'0 0.0
2019-Jun-08 13:58N 59°54' E 010°45'0 0.0
2019-Jun-08 13:28N 59°54' E 010°45'0 0.0
2019-Jun-08 12:58N 59°54' E 010°45'0 0.0
2019-Jun-08 12:28N 59°54' E 010°45'0 0.0
2019-Jun-08 11:58N 59°54' E 010°45'0 0.0
2019-Jun-08 11:28N 59°54' E 010°45'0 0.0
2019-Jun-08 10:58N 59°54' E 010°45'0 0.0
2019-Jun-08 10:28N 59°54' E 010°45'0 0.0
2019-Jun-08 09:58N 59°54' E 010°45'0 0.0
2019-Jun-08 09:28N 59°54' E 010°45'0 0.0
2019-Jun-08 08:58N 59°54' E 010°45'0 0.0
2019-Jun-08 08:28N 59°54' E 010°45'0 0.0
2019-Jun-08 07:58N 59°54' E 010°45'0 0.0
2019-Jun-08 07:28N 59°54' E 010°45'0 0.0
2019-Jun-08 06:58N 59°54' E 010°45'0 0.0
2019-Jun-08 06:28N 59°54' E 010°45'0 0.0
2019-Jun-08 05:58N 59°54' E 010°45'0 0.0
2019-Jun-08 05:28N 59°54' E 010°45'0 0.0
2019-Jun-08 04:58N 59°54' E 010°45'0 0.0
2019-Jun-08 04:28N 59°54' E 010°45'0 0.0
2019-Jun-08 03:58N 59°54' E 010°45'0 0.0
2019-Jun-08 03:28N 59°54' E 010°45'0 0.0
2019-Jun-08 02:58N 59°54' E 010°45'0 0.0
2019-Jun-08 02:28N 59°54' E 010°45'0 0.0
2019-Jun-08 01:58N 59°54' E 010°45'0 0.0
2019-Jun-08 01:28N 59°54' E 010°45'0 0.0
2019-Jun-08 00:58N 59°54' E 010°45'0 0.0
2019-Jun-08 00:28N 59°54' E 010°45'0 0.0
2019-Jun-07 23:58N 59°54' E 010°45'0 0.0
2019-Jun-07 23:28N 59°54' E 010°45'0 0.0
2019-Jun-07 22:58N 59°54' E 010°45'0 0.0
2019-Jun-07 22:28N 59°54' E 010°45'0 0.0
2019-Jun-07 21:58N 59°54' E 010°45'0 0.0
2019-Jun-07 21:28N 59°54' E 010°45'0 0.0
2019-Jun-07 20:58N 59°54' E 010°45'0 0.0
2019-Jun-07 20:29N 59°54' E 010°45'0 0.3
2019-Jun-07 20:00N 59°54' E 010°45'2 3.9
2019-Jun-07 19:30N 59°54' E 010°41'1 2.8
2019-Jun-07 18:59N 59°52' E 010°41'3 5.4
2019-Jun-07 18:30N 59°50' E 010°44'1 2.6
2019-Jun-07 18:00N 59°51' E 010°46'1 2.6
2019-Jun-07 17:29N 59°52' E 010°44'1 2.5
2019-Jun-07 17:00N 59°53' E 010°45'1 2.4
2019-Jun-07 16:28N 59°54' E 010°45'0 0.4
2019-Jun-07 15:58N 59°54' E 010°45'0 0.0
2019-Jun-07 15:28N 59°54' E 010°45'0 0.0
2019-Jun-07 15:00N 59°54' E 010°45'0 0.0
2019-Jun-07 14:30N 59°54' E 010°45'0 0.0
2019-Jun-07 14:00N 59°54' E 010°45'0 0.0
2019-Jun-07 13:30N 59°54' E 010°45'0 0.0
2019-Jun-07 13:00N 59°54' E 010°45'0 0.0
2019-Jun-07 12:30N 59°54' E 010°45'0 0.0
2019-Jun-07 12:00N 59°54' E 010°45'0 0.0
2019-Jun-07 11:30N 59°54' E 010°45'0 0.0
2019-Jun-07 11:00N 59°54' E 010°45'0 0.0
2019-Jun-07 10:30N 59°54' E 010°45'0 0.0
2019-Jun-07 10:00N 59°54' E 010°45'0 0.0
2019-Jun-07 09:30N 59°54' E 010°45'0 0.0
2019-Jun-07 08:58N 59°54' E 010°45'0 0.8
2019-Jun-07 08:28N 59°54' E 010°45'0 0.8
2019-Jun-07 07:58N 59°54' E 010°44'0 0.0
2019-Jun-07 07:28N 59°54' E 010°44'0 0.0
2019-Jun-07 06:58N 59°54' E 010°44'0 0.0
2019-Jun-07 06:28N 59°54' E 010°44'0 0.0
2019-Jun-07 05:58N 59°54' E 010°44'0 0.0
2019-Jun-07 05:28N 59°54' E 010°44'0 0.0
2019-Jun-07 04:58N 59°54' E 010°44'0 0.0
2019-Jun-07 04:28N 59°54' E 010°44'0 0.0
2019-Jun-07 03:55N 59°54' E 010°44'0 0.0
2019-Jun-07 03:28N 59°54' E 010°44'0 0.0
2019-Jun-07 02:58N 59°54' E 010°44'0 0.0
2019-Jun-07 02:28N 59°54' E 010°44'0 0.0
2019-Jun-07 01:58N 59°54' E 010°44'0 0.0
2019-Jun-07 01:28N 59°54' E 010°44'0 0.0
2019-Jun-07 00:58N 59°54' E 010°44'0 0.0
2019-Jun-07 00:28N 59°54' E 010°44'0 0.0
2019-Jun-06 23:58N 59°54' E 010°44'0 0.0
2019-Jun-06 23:28N 59°54' E 010°44'0 0.0
2019-Jun-06 22:55N 59°54' E 010°44'0 0.0
2019-Jun-06 22:28N 59°54' E 010°44'0 0.0
2019-Jun-06 21:58N 59°54' E 010°44'0 0.0
2019-Jun-06 21:25N 59°54' E 010°44'0 0.0
2019-Jun-06 20:58N 59°54' E 010°44'0 0.0
2019-Jun-06 20:25N 59°54' E 010°44'0 0.0
2019-Jun-06 19:58N 59°54' E 010°44'0 0.0
2019-Jun-06 19:28N 59°54' E 010°44'0 0.0
2019-Jun-06 18:58N 59°54' E 010°44'0 0.0
2019-Jun-06 18:28N 59°54' E 010°44'0 0.0
2019-Jun-06 17:58N 59°54' E 010°44'0 0.0
2019-Jun-06 17:25N 59°54' E 010°44'0 0.0
2019-Jun-06 16:55N 59°54' E 010°44'0 0.0
2019-Jun-06 16:28N 59°54' E 010°44'0 0.0
2019-Jun-06 15:58N 59°54' E 010°44'0 0.0
2019-Jun-06 15:28N 59°54' E 010°44'0 0.0
2019-Jun-06 14:58N 59°54' E 010°44'0 0.0
2019-Jun-06 14:28N 59°54' E 010°44'0 0.0
2019-Jun-06 13:58N 59°54' E 010°44'0 0.0
2019-Jun-06 13:28N 59°54' E 010°44'0 0.0
2019-Jun-06 12:58N 59°54' E 010°44'0 0.0
2019-Jun-06 12:28N 59°54' E 010°44'0 0.0
2019-Jun-06 11:58N 59°54' E 010°44'0 0.0
2019-Jun-06 11:28N 59°54' E 010°44'0 0.0
2019-Jun-06 10:58N 59°54' E 010°44'0 0.0
2019-Jun-06 10:28N 59°54' E 010°44'0 0.0
2019-Jun-06 09:58N 59°54' E 010°44'0 0.0
2019-Jun-06 09:28N 59°54' E 010°44'0 0.0
2019-Jun-06 08:58N 59°54' E 010°44'0 0.0
2019-Jun-06 08:28N 59°54' E 010°44'0 0.0
2019-Jun-06 07:58N 59°54' E 010°44'0 0.0
2019-Jun-06 07:30N 59°54' E 010°44'0 0.0
2019-Jun-06 07:00N 59°54' E 010°44'1 1.8
2019-Jun-06 06:30N 59°54' E 010°42'3 5.3
2019-Jun-06 06:00N 59°52' E 010°39'4 7.4
2019-Jun-06 05:30N 59°49' E 010°35'4 7.2
2019-Jun-06 05:00N 59°45' E 010°34'3 7.1
2019-Jun-06 04:30N 59°42' E 010°36'3 6.8
2019-Jun-06 04:00N 59°39' E 010°37'3 6.5
2019-Jun-06 03:30N 59°35' E 010°38'3 6.6
2019-Jun-06 03:00N 59°32' E 010°37'3 6.6
2019-Jun-06 02:30N 59°29' E 010°35'3 6.4
2019-Jun-06 02:00N 59°26' E 010°34'3 5.8
2019-Jun-06 01:30N 59°23' E 010°35'3 6.2
2019-Jun-06 01:00N 59°20' E 010°36'3 5.8
2019-Jun-06 00:30N 59°17' E 010°37'  

Dump ship's entire track history